Time;durP1;ratioP1;P1;durP2;ratioP2;P2;SDS_P1;SDS_P2;PMS_P1;PMS_P2;Temp;Humidity;BMP_temperature;BMP_pressure;BME280_temperature;BME280_humidity;BME280_pressure;Samples;Min_cycle;Max_cycle;Signal;HPM_P1;HPM_P2
2022/12/24 00:00:18;;;;;;;94.72;13.30;;;;;;;8.67;100.00;100544.25;5112761;28;20027;-49
2022/12/24 00:02:43;;;;;;;101.40;14.10;;;;;;;8.64;100.00;100544.19;5112633;28;20055;-50
2022/12/24 00:05:09;;;;;;;109.72;14.52;;;;;;;8.63;100.00;100552.69;5113422;28;20043;-49
2022/12/24 00:07:35;;;;;;;105.47;14.50;;;;;;;8.60;100.00;100547.44;5112555;28;20052;-50
2022/12/24 00:10:00;;;;;;;108.72;15.75;;;;;;;8.56;100.00;100552.50;5113076;28;20020;-51
2022/12/24 00:12:25;;;;;;;96.50;14.57;;;;;;;8.50;100.00;100552.28;5113276;28;20035;-49
2022/12/24 00:14:50;;;;;;;105.78;15.68;;;;;;;8.51;100.00;100556.59;5112300;28;20475;-49
2022/12/24 00:17:16;;;;;;;113.50;16.70;;;;;;;8.52;100.00;100554.91;5112824;28;20027;-49
2022/12/24 00:19:42;;;;;;;90.82;15.52;;;;;;;8.52;100.00;100560.03;5112944;28;20027;-49
2022/12/24 00:22:07;;;;;;;109.13;15.75;;;;;;;8.50;100.00;100567.69;5112829;28;20464;-49
2022/12/24 00:24:32;;;;;;;125.78;18.02;;;;;;;8.48;100.00;100559.09;5112405;28;20475;-48
2022/12/24 00:26:58;;;;;;;107.20;17.40;;;;;;;8.50;100.00;100565.13;5117052;28;20076;-47
2022/12/24 00:29:23;;;;;;;107.00;17.95;;;;;;;8.50;100.00;100570.25;5116668;28;20019;-48
2022/12/24 00:31:48;;;;;;;112.75;16.70;;;;;;;8.46;100.00;100571.00;5116444;28;20055;-50
2022/12/24 00:34:14;;;;;;;109.72;18.30;;;;;;;8.44;100.00;100571.72;5117207;28;20352;-48
2022/12/24 00:36:39;;;;;;;99.47;18.33;;;;;;;8.46;100.00;100581.25;5116506;28;20078;-49
2022/12/24 00:39:04;;;;;;;113.10;19.23;;;;;;;8.44;100.00;100588.00;5116761;28;20106;-50
2022/12/24 00:41:30;;;;;;;107.18;17.73;;;;;;;8.48;100.00;100581.31;5116170;28;20077;-50
2022/12/24 00:44:04;;;;;;;103.63;16.73;;;;;;;8.50;100.00;100590.81;5116902;28;20085;-49
2022/12/24 00:46:31;;;;;;;100.25;16.95;;;;;;;8.48;100.00;100582.19;5116252;28;20043;-49
2022/12/24 00:48:56;;;;;;;84.67;15.80;;;;;;;8.48;100.00;100592.47;5116450;28;20034;-49
2022/12/24 00:51:23;;;;;;;99.07;18.13;;;;;;;8.43;100.00;100593.97;5116568;28;20467;-49
2022/12/24 00:53:49;;;;;;;103.20;18.02;;;;;;;8.49;100.00;100599.31;5116368;28;20043;-49
2022/12/24 00:56:14;;;;;;;103.65;17.65;;;;;;;8.50;100.00;100606.22;5116239;28;20016;-47
2022/12/24 00:58:39;;;;;;;99.57;17.95;;;;;;;8.49;100.00;100616.44;5116098;28;20417;-50
2022/12/24 01:01:05;;;;;;;99.10;17.75;;;;;;;8.50;100.00;100618.19;5116565;28;20115;-47
2022/12/24 01:03:36;;;;;;;97.30;16.92;;;;;;;8.49;100.00;100616.44;5115583;28;20043;-46
2022/12/24 01:06:08;;;;;;;94.85;17.50;;;;;;;8.49;100.00;100630.16;5116447;28;20023;-49
2022/12/24 01:08:35;;;;;;;100.45;17.10;;;;;;;8.47;100.00;100626.69;5116206;28;20027;-49
2022/12/24 01:11:02;;;;;;;104.00;16.98;;;;;;;8.50;100.00;100629.34;5115818;28;20046;-50
2022/12/24 01:13:27;;;;;;;112.37;16.93;;;;;;;8.53;100.00;100629.47;5115927;28;20026;-45
2022/12/24 01:15:53;;;;;;;93.53;16.45;;;;;;;8.50;100.00;100626.75;5116400;28;20102;-45
2022/12/24 01:18:19;;;;;;;97.97;18.55;;;;;;;8.46;100.00;100635.19;5115872;28;20023;-49
2022/12/24 01:20:44;;;;;;;88.25;16.73;;;;;;;8.45;100.00;100635.97;5115883;28;20459;-45
2022/12/24 01:23:09;;;;;;;92.35;16.48;;;;;;;8.38;100.00;100636.59;5116075;28;20027;-50
2022/12/24 01:25:37;;;;;;;90.18;18.15;;;;;;;8.37;100.00;100643.41;5115361;28;20016;-49
2022/12/24 01:28:03;;;;;;;99.22;16.77;;;;;;;8.34;100.00;100642.41;5115723;28;20023;-49
2022/12/24 01:30:28;;;;;;;84.70;16.92;;;;;;;8.28;100.00;100647.38;5115962;28;20402;-46
2022/12/24 01:32:53;;;;;;;91.07;17.25;;;;;;;8.24;100.00;100656.66;5115458;28;20058;-49
2022/12/24 01:35:18;;;;;;;122.63;18.60;;;;;;;8.18;100.00;100657.28;5115674;28;20031;-49
2022/12/24 01:37:44;;;;;;;92.07;17.58;;;;;;;8.18;100.00;100666.69;5114715;28;20034;-48
2022/12/24 01:45:49;;;;;;;99.45;18.50;;;;;;;8.11;100.00;100669.84;5115252;28;20391;-49
2022/12/24 01:48:22;;;;;;;101.43;19.40;;;;;;;8.10;100.00;100668.09;5115543;28;20091;-48
2022/12/24 01:50:52;;;;;;;91.50;17.00;;;;;;;8.09;100.00;100672.34;5115315;28;20372;-49
2022/12/24 01:53:18;;;;;;;114.18;19.00;;;;;;;8.07;100.00;100663.75;5115263;28;20035;-48
2022/12/24 01:55:45;;;;;;;105.75;17.83;;;;;;;8.08;100.00;100676.63;5115233;28;20046;-48
2022/12/24 01:58:13;;;;;;;100.68;18.48;;;;;;;8.11;100.00;100675.88;5115720;28;20024;-48
2022/12/24 02:00:39;;;;;;;108.47;19.10;;;;;;;8.16;100.00;100679.47;5114743;28;20023;-49
2022/12/24 02:03:05;;;;;;;100.50;19.80;;;;;;;8.21;100.00;100683.09;5114913;28;20055;-48
2022/12/24 02:05:42;;;;;;;110.25;20.10;;;;;;;8.23;100.00;100691.69;5114854;28;20032;-48
2022/12/24 02:08:07;;;;;;;89.07;18.33;;;;;;;8.26;100.00;100698.63;5115421;28;20020;-49
2022/12/24 02:10:33;;;;;;;102.65;19.25;;;;;;;8.27;100.00;100697.81;5114826;28;20076;-48
2022/12/24 02:13:00;;;;;;;104.93;18.13;;;;;;;8.31;100.00;100703.94;5114558;28;20395;-50
2022/12/24 02:15:33;;;;;;;108.22;19.00;;;;;;;8.32;100.00;100701.44;5115011;28;20016;-48
2022/12/24 02:18:09;;;;;;;113.40;18.48;;;;;;;8.34;100.00;100709.19;5115081;28;20031;-49
2022/12/24 02:21:12;;;;;;;90.97;18.03;;;;;;;8.35;100.00;100716.06;5114116;28;20477;-49
2022/12/24 02:23:56;;;;;;;111.22;19.60;;;;;;;8.37;100.00;100705.03;5114516;28;20352;-49
2022/12/24 02:26:39;;;;;;;100.15;17.10;;;;;;;8.40;100.00;100704.28;5114880;28;20054;-50
2022/12/24 02:29:39;;;;;;;101.82;19.15;;;;;;;8.41;100.00;100706.03;5114484;28;20084;-49
2022/12/24 02:32:12;;;;;;;110.03;18.02;;;;;;;8.39;100.00;100706.00;5114748;28;20387;-48
2022/12/24 02:34:44;;;;;;;122.25;19.35;;;;;;;8.37;100.00;100709.31;5113828;28;20020;-49
2022/12/24 02:37:26;;;;;;;110.32;19.20;;;;;;;8.39;100.00;100705.09;5114696;28;20027;-49
2022/12/24 02:40:05;;;;;;;113.82;19.70;;;;;;;8.41;100.00;100716.31;5114295;28;20489;-50
2022/12/24 02:42:36;;;;;;;125.20;20.20;;;;;;;8.44;100.00;100711.28;5113810;28;20012;-48
2022/12/24 02:45:29;;;;;;;120.63;19.55;;;;;;;8.47;100.00;100705.41;5114331;28;20478;-49
2022/12/24 02:47:55;;;;;;;114.85;20.85;;;;;;;8.49;100.00;100727.75;5101907;28;20390;-47
2022/12/24 02:50:21;;;;;;;113.57;18.67;;;;;;;8.48;100.00;100720.88;5114349;28;20486;-49
2022/12/24 02:52:47;;;;;;;114.25;18.92;;;;;;;8.46;100.00;100714.81;5113681;28;20051;-50
2022/12/24 02:55:31;;;;;;;121.13;19.05;;;;;;;8.45;100.00;100728.44;5114025;28;20060;-45
2022/12/24 02:58:09;;;;;;;137.68;18.73;;;;;;;8.44;100.00;100730.94;5114253;28;20065;-45
2022/12/24 03:00:54;;;;;;;113.93;18.42;;;;;;;8.47;100.00;100721.72;5114038;28;20026;-49
2022/12/24 03:03:46;;;;;;;141.40;19.45;;;;;;;8.52;100.00;100724.41;5113406;28;20118;-49
2022/12/24 03:06:51;;;;;;;126.93;18.75;;;;;;;8.51;100.00;100723.56;5114142;28;20066;-50
2022/12/24 03:09:48;;;;;;;109.90;19.00;;;;;;;8.50;100.00;100726.94;5113679;28;20080;-50
2022/12/24 03:12:23;;;;;;;114.57;17.85;;;;;;;8.48;100.00;100725.13;5097479;28;20050;-50
2022/12/24 03:14:49;;;;;;;106.60;17.30;;;;;;;8.48;100.00;100731.16;5113916;28;20063;-48
2022/12/24 03:17:16;;;;;;;114.85;17.15;;;;;;;8.47;100.00;100728.50;5113305;28;20091;-48
2022/12/24 03:19:41;;;;;;;107.28;16.70;;;;;;;8.46;100.00;100737.94;5113335;28;20538;-48
2022/12/24 03:22:09;;;;;;;103.47;18.27;;;;;;;8.47;100.00;100737.13;5113966;28;20114;-49
2022/12/24 03:24:35;;;;;;;115.32;17.98;;;;;;;8.46;100.00;100725.09;5112817;28;20031;-49
2022/12/24 03:27:01;;;;;;;113.75;17.33;;;;;;;8.42;100.00;100733.47;5113729;28;20031;-48
2022/12/24 03:29:26;;;;;;;124.22;18.45;;;;;;;8.39;100.00;100728.19;5113960;28;20035;-49
2022/12/24 03:31:57;;;;;;;107.38;17.42;;;;;;;8.40;100.00;100724.81;5112991;28;20031;-49
2022/12/24 03:34:23;;;;;;;101.38;18.25;;;;;;;8.43;100.00;100735.22;5113561;28;20102;-49
2022/12/24 03:36:48;;;;;;;110.88;19.17;;;;;;;8.41;100.00;100734.28;5113255;28;20062;-48
2022/12/24 03:39:14;;;;;;;119.85;18.95;;;;;;;8.46;100.00;100739.63;5107922;28;20032;-47
2022/12/24 03:41:39;;;;;;;107.53;17.98;;;;;;;8.53;100.00;100742.47;5092805;28;20024;-49
2022/12/24 03:44:04;;;;;;;126.32;20.95;;;;;;;8.56;100.00;100745.16;5093316;28;20017;-49
2022/12/24 03:46:30;;;;;;;87.53;19.27;;;;;;;8.61;100.00;100744.44;5092377;28;20028;-50
2022/12/24 03:48:56;;;;;;;114.78;19.17;;;;;;;8.66;100.00;100742.91;5092782;28;20024;-50
2022/12/24 03:51:23;;;;;;;103.68;19.35;;;;;;;8.70;100.00;100749.91;5092413;28;20435;-49
2022/12/24 03:53:51;;;;;;;99.03;18.67;;;;;;;8.74;100.00;100756.91;5092532;28;20020;-50
2022/12/24 03:56:17;;;;;;;109.72;19.48;;;;;;;8.77;100.00;100749.31;5093228;28;20024;-48
2022/12/24 03:58:42;;;;;;;92.75;18.63;;;;;;;8.80;100.00;100743.41;5092096;28;20364;-49
2022/12/24 04:01:07;;;;;;;114.00;19.98;;;;;;;8.84;100.00;100758.09;5092672;28;20111;-48
2022/12/24 04:03:33;;;;;;;102.43;19.90;;;;;;;8.85;100.00;100755.56;5092602;28;20040;-49
2022/12/24 04:06:03;;;;;;;98.10;18.55;;;;;;;8.84;100.00;100753.81;5092369;28;20480;-50
2022/12/24 04:08:29;;;;;;;106.38;19.90;;;;;;;8.83;100.00;100752.09;5092394;28;20032;-50
2022/12/24 04:10:54;;;;;;;126.78;20.75;;;;;;;8.87;100.00;100756.50;5092773;28;20028;-48
2022/12/24 04:13:19;;;;;;;112.07;20.38;;;;;;;8.87;100.00;100753.06;5092319;28;20028;-50
2022/12/24 04:15:45;;;;;;;95.18;20.02;;;;;;;8.90;100.00;100763.47;5092339;28;20021;-49
2022/12/24 04:18:10;;;;;;;93.80;18.65;;;;;;;8.88;100.00;100765.97;5092934;28;20028;-45
2022/12/24 04:20:35;;;;;;;91.68;19.15;;;;;;;8.84;100.00;100768.38;5091981;28;20442;-49
2022/12/24 04:23:00;;;;;;;105.05;19.38;;;;;;;8.80;100.00;100772.53;5092508;28;20020;-48
2022/12/24 04:25:26;;;;;;;92.40;19.23;;;;;;;8.82;100.00;100767.44;5092916;28;20489;-49
2022/12/24 04:27:51;;;;;;;90.63;18.63;;;;;;;8.80;100.00;100772.53;5091996;28;20031;-48
2022/12/24 04:30:16;;;;;;;101.53;19.15;;;;;;;8.80;100.00;100777.66;5092611;28;20534;-47
2022/12/24 04:32:42;;;;;;;105.85;20.38;;;;;;;8.81;100.00;100768.28;5092307;28;20532;-45
2022/12/24 04:35:07;;;;;;;92.63;18.25;;;;;;;8.80;100.00;100777.66;5092093;28;20039;-45
2022/12/24 04:37:33;;;;;;;92.63;18.65;;;;;;;8.77;100.00;100776.72;5092015;28;20024;-45
2022/12/24 04:39:58;;;;;;;91.32;17.75;;;;;;;8.74;100.00;100772.34;5092728;28;20492;-49
2022/12/24 04:42:23;;;;;;;90.03;18.20;;;;;;;8.78;100.00;100775.88;5092160;28;20537;-46
2022/12/24 04:44:49;;;;;;;90.35;19.17;;;;;;;8.79;100.00;100780.19;5092253;28;20104;-48
2022/12/24 04:47:14;;;;;;;120.32;20.02;;;;;;;8.78;100.00;100781.91;5092627;28;20028;-49
2022/12/24 04:49:39;;;;;;;100.38;19.08;;;;;;;8.75;100.00;100784.34;5091697;28;20028;-48
2022/12/24 04:52:05;;;;;;;88.22;17.88;;;;;;;8.70;100.00;100780.72;5092096;28;20093;-49
2022/12/24 04:54:30;;;;;;;109.75;19.00;;;;;;;8.69;100.00;100786.72;5091914;28;20038;-47
2022/12/24 04:56:55;;;;;;;97.72;18.83;;;;;;;8.68;100.00;100788.38;5092336;28;20024;-49
2022/12/24 04:59:21;;;;;;;103.78;18.63;;;;;;;8.66;100.00;100794.28;5092490;28;20031;-49
2022/12/24 05:01:46;;;;;;;104.18;19.02;;;;;;;8.65;100.00;100797.66;5091360;28;20056;-49
2022/12/24 05:04:11;;;;;;;97.60;19.40;;;;;;;8.69;100.00;100799.56;5092197;28;20048;-48
2022/12/24 05:06:36;;;;;;;97.40;18.20;;;;;;;8.69;100.00;100789.28;5092021;28;20024;-49
2022/12/24 05:09:02;;;;;;;105.45;19.05;;;;;;;8.72;100.00;100791.94;5091804;28;20464;-49
2022/12/24 05:11:28;;;;;;;105.35;19.75;;;;;;;8.73;100.00;100796.28;5092902;28;20028;-47
2022/12/24 05:13:53;;;;;;;111.95;19.48;;;;;;;8.71;100.00;100797.91;5095903;28;20023;-49
2022/12/24 05:16:20;;;;;;;109.85;19.02;;;;;;;8.70;100.00;100796.16;5095502;28;20036;-46
2022/12/24 05:18:46;;;;;;;91.72;16.42;;;;;;;8.65;100.00;100796.00;5095414;28;20028;-49
2022/12/24 05:21:20;;;;;;;108.75;18.15;;;;;;;8.62;100.00;100808.72;5095763;28;20043;-50
2022/12/24 05:26:34;;;;;;;111.47;18.88;;;;;;;8.60;100.00;100796.63;5095246;28;20044;-49
2022/12/24 05:29:02;;;;;;;101.32;16.48;;;;;;;8.59;100.00;100784.63;5095557;28;20472;-49
2022/12/24 05:31:29;;;;;;;83.38;14.98;;;;;;;8.52;100.00;100792.09;5094618;28;20032;-44
2022/12/24 05:33:55;;;;;;;102.28;15.38;;;;;;;8.50;100.00;100798.84;5095288;28;20024;-48
2022/12/24 05:36:21;;;;;;;108.97;15.95;;;;;;;8.46;100.00;100801.28;5095604;28;20024;-49
2022/12/24 05:38:47;;;;;;;108.07;16.42;;;;;;;8.46;100.00;100799.56;5094607;28;20873;-49
2022/12/24 05:41:12;;;;;;;111.65;17.05;;;;;;;8.47;100.00;100801.31;5095427;28;20116;-50
2022/12/24 05:43:38;;;;;;;91.45;16.17;;;;;;;8.46;100.00;100807.28;5095037;28;20040;-47
2022/12/24 05:46:06;;;;;;;110.80;17.50;;;;;;;8.45;100.00;100815.75;5094767;28;20027;-49
2022/12/24 05:48:31;;;;;;;;;;;;;;;8.49;100.00;100820.22;5095471;28;20024;-50
2022/12/24 05:50:56;;;;;;;111.93;18.10;;;;;;;8.45;100.00;100815.75;5095010;28;19912;-49
2022/12/24 05:53:22;;;;;;;98.82;18.40;;;;;;;8.45;100.00;100820.91;5095223;28;20286;-49
2022/12/24 05:55:47;;;;;;;104.97;17.55;;;;;;;8.49;100.00;100827.94;5095028;28;20531;-47
2022/12/24 05:58:13;;;;;;;91.30;18.27;;;;;;;8.49;100.00;100827.94;5094653;28;20024;-49
2022/12/24 06:00:38;;;;;;;109.18;17.90;;;;;;;8.50;100.00;100839.97;5094604;28;20103;-49
2022/12/24 06:03:04;;;;;;;113.35;18.60;;;;;;;8.56;100.00;100840.19;5094830;28;20089;-49
2022/12/24 06:05:30;;;;;;;115.10;18.15;;;;;;;8.57;100.00;100835.91;5094297;28;20046;-51
2022/12/24 06:07:55;;;;;;;89.30;17.80;;;;;;;8.56;100.00;100845.34;5094775;28;20102;-49
2022/12/24 06:10:21;;;;;;;109.20;17.20;;;;;;;8.55;100.00;100851.28;5094735;28;20043;-46
2022/12/24 06:12:46;;;;;;;102.70;17.75;;;;;;;8.57;100.00;100849.66;5094001;28;20069;-47
2022/12/24 06:15:12;;;;;;;89.68;17.08;;;;;;;8.62;100.00;100839.53;5094480;28;20028;-45
2022/12/24 06:17:37;;;;;;;100.63;18.15;;;;;;;8.63;100.00;100845.56;5094311;28;20023;-49
2022/12/24 06:20:03;;;;;;;88.97;17.27;;;;;;;8.63;100.00;100850.72;5094451;28;20020;-48
2022/12/24 06:22:29;;;;;;;97.03;15.55;;;;;;;8.63;100.00;100845.56;5094266;28;20032;-49
2022/12/24 06:24:54;;;;;;;98.22;17.77;;;;;;;8.61;100.00;100840.38;5094565;28;20375;-49
2022/12/24 06:27:19;;;;;;;106.35;17.30;;;;;;;8.57;100.00;100852.22;5093995;28;20059;-50
2022/12/24 06:29:45;;;;;;;95.20;16.98;;;;;;;8.56;100.00;100852.19;5093946;28;20020;-49
2022/12/24 06:32:10;;;;;;;98.72;18.33;;;;;;;8.53;100.00;100854.59;5094317;28;20031;-50
2022/12/24 06:34:35;;;;;;;104.28;16.55;;;;;;;8.50;100.00;100850.22;5093499;28;20077;-50
2022/12/24 06:37:01;;;;;;;86.55;17.30;;;;;;;8.47;100.00;100868.09;5094074;28;20042;-48
2022/12/24 06:39:27;;;;;;;94.45;17.25;;;;;;;8.46;100.00;100871.47;5094335;28;20020;-49
2022/12/24 06:41:52;;;;;;;88.38;17.17;;;;;;;8.41;100.00;100872.97;5093531;28;20386;-47
2022/12/24 06:44:17;;;;;;;101.00;18.55;;;;;;;8.45;100.00;100881.69;5094242;28;20024;-49
2022/12/24 06:46:42;;;;;;;91.10;18.08;;;;;;;8.41;100.00;100878.09;5093714;28;20383;-47
2022/12/24 06:49:08;;;;;;;86.88;19.40;;;;;;;8.39;100.00;100877.16;5093642;28;20016;-47
2022/12/24 06:51:33;;;;;;;93.38;18.30;;;;;;;8.35;100.00;100880.44;5093882;28;20051;-45
2022/12/24 06:53:58;;;;;;;98.95;17.83;;;;;;;8.38;100.00;100885.69;5094080;28;20031;-48
2022/12/24 06:56:24;;;;;;;92.50;19.55;;;;;;;8.38;100.00;100883.13;5093300;28;20454;-46
2022/12/24 06:58:49;;;;;;;125.20;20.85;;;;;;;8.37;100.00;100877.09;5093615;28;20028;-49
2022/12/24 07:01:16;;;;;;;90.55;18.67;;;;;;;8.34;100.00;100884.69;5093344;28;20024;-49
2022/12/24 07:03:41;;;;;;;109.88;19.60;;;;;;;8.33;100.00;100890.66;5093270;28;20048;-49
2022/12/24 07:06:15;;;;;;;103.72;19.80;;;;;;;8.31;100.00;100889.69;5093595;28;20361;-49
2022/12/24 07:08:40;;;;;;;108.22;19.80;;;;;;;8.32;100.00;100891.44;5092984;28;20035;-50
2022/12/24 07:11:05;;;;;;;114.43;20.05;;;;;;;8.32;100.00;100893.16;5093554;28;20020;-48
2022/12/24 07:13:33;;;;;;;107.28;19.48;;;;;;;8.27;100.00;100902.38;5093358;28;20039;-50
2022/12/24 07:16:02;;;;;;;109.20;20.40;;;;;;;8.27;100.00;100904.94;5093089;28;20020;-46
2022/12/24 07:18:28;;;;;;;111.95;19.60;;;;;;;8.25;100.00;100904.88;5092983;28;20387;-48
2022/12/24 07:20:53;;;;;;;111.78;18.98;;;;;;;8.24;100.00;100909.13;5093726;28;20487;-50
2022/12/24 07:23:19;;;;;;;108.88;18.65;;;;;;;8.18;100.00;100908.00;5092807;28;20032;-49
2022/12/24 07:25:44;;;;;;;95.03;19.25;;;;;;;8.20;100.00;100911.53;5092895;28;20028;-49
2022/12/24 07:28:09;;;;;;;122.18;19.63;;;;;;;8.15;100.00;100908.75;5093307;28;20077;-49
2022/12/24 07:30:35;;;;;;;118.78;18.50;;;;;;;8.14;100.00;100904.44;5092354;28;20109;-49
2022/12/24 07:33:00;;;;;;;100.47;18.35;;;;;;;8.10;100.00;100920.53;5093070;28;20085;-49
2022/12/24 07:35:26;;;;;;;108.90;19.08;;;;;;;8.09;100.00;100929.03;5092823;28;20034;-47
2022/12/24 07:37:51;;;;;;;115.03;18.80;;;;;;;8.08;100.00;100927.28;5092337;28;20085;-49
2022/12/24 07:40:16;;;;;;;93.85;17.95;;;;;;;8.07;100.00;100933.25;5092930;28;20103;-48
2022/12/24 07:42:41;;;;;;;113.57;18.88;;;;;;;8.02;100.00;100930.50;5092762;28;20348;-49
2022/12/24 07:45:07;;;;;;;115.18;18.17;;;;;;;8.01;100.00;100940.69;5092226;28;20043;-48
2022/12/24 07:47:34;;;;;;;123.00;18.63;;;;;;;7.96;100.00;100940.50;5092997;28;20024;-46
2022/12/24 07:49:59;;;;;;;107.40;19.00;;;;;;;7.98;100.00;100936.31;5093091;28;20036;-45
2022/12/24 07:52:24;;;;;;;115.85;18.50;;;;;;;7.99;100.00;100948.34;5092119;28;20051;-46
2022/12/24 07:54:49;;;;;;;120.95;19.92;;;;;;;8.05;100.00;100945.13;5092723;28;20040;-50
2022/12/24 07:57:15;;;;;;;120.43;21.17;;;;;;;8.02;100.00;100952.72;5092851;28;20417;-48
2022/12/24 07:59:40;;;;;;;112.78;19.55;;;;;;;8.02;100.00;100952.72;5091899;28;20111;-47
2022/12/24 08:02:05;;;;;;;120.03;21.13;;;;;;;8.00;100.00;100968.03;5092821;28;20126;-49
2022/12/24 08:04:35;;;;;;;99.63;18.88;;;;;;;7.99;100.00;100978.25;5092284;28;20036;-49
2022/12/24 08:07:00;;;;;;;121.75;19.33;;;;;;;8.01;100.00;100976.63;5092528;28;20432;-47
2022/12/24 08:09:25;;;;;;;108.78;19.20;;;;;;;8.04;100.00;100987.00;5093009;28;20044;-48
2022/12/24 08:11:50;;;;;;;123.30;20.75;;;;;;;8.08;100.00;100971.81;5091987;28;20101;-48
2022/12/24 08:14:16;;;;;;;128.15;21.95;;;;;;;8.10;100.00;100987.28;5092415;28;20429;-49
2022/12/24 08:16:41;;;;;;;106.28;18.73;;;;;;;8.08;100.00;100994.03;5092598;28;20372;-50
2022/12/24 08:19:06;;;;;;;111.57;19.10;;;;;;;8.10;100.00;101002.69;5092357;28;20061;-49
2022/12/24 08:21:31;;;;;;;119.15;19.58;;;;;;;8.08;100.00;101005.19;5092348;28;20560;-50
2022/12/24 08:23:57;;;;;;;113.38;18.52;;;;;;;8.05;100.00;101005.03;5092812;28;20107;-47
2022/12/24 08:26:22;;;;;;;110.75;18.98;;;;;;;8.08;100.00;101018.03;5092062;28;20429;-46
2022/12/24 08:28:47;;;;;;;110.57;17.95;;;;;;;8.08;100.00;101014.56;5091954;28;20024;-49
2022/12/24 08:31:14;;;;;;;115.32;19.90;;;;;;;8.12;100.00;101020.72;5092775;28;20064;-48
2022/12/24 08:33:40;;;;;;;122.17;17.93;;;;;;;8.11;100.00;101018.94;5092010;28;20032;-47
2022/12/24 08:36:05;;;;;;;105.07;18.40;;;;;;;8.15;100.00;101021.72;5092576;28;20282;-48
2022/12/24 08:38:30;;;;;;;108.53;18.13;;;;;;;8.17;100.00;101019.22;5092233;28;20025;-49
2022/12/24 08:40:56;;;;;;;119.78;18.67;;;;;;;8.15;100.00;101024.28;5092091;28;20035;-48
2022/12/24 08:43:21;;;;;;;108.13;18.08;;;;;;;8.16;100.00;101026.06;5092264;28;20070;-49
2022/12/24 08:45:50;;;;;;;104.47;18.48;;;;;;;8.17;100.00;101029.47;5092578;28;20039;-47
2022/12/24 08:48:16;;;;;;;103.78;19.50;;;;;;;8.17;100.00;101035.50;5095857;28;20031;-46
2022/12/24 08:50:42;;;;;;;113.38;17.63;;;;;;;8.21;100.00;101036.50;5096249;28;20376;-49
2022/12/24 08:53:08;;;;;;;105.10;18.10;;;;;;;8.25;100.00;101035.84;5096306;28;20035;-49
2022/12/24 08:55:34;;;;;;;110.28;19.08;;;;;;;8.28;100.00;101040.22;5095335;28;20024;-47
2022/12/24 08:58:00;;;;;;;108.93;18.25;;;;;;;8.29;100.00;101047.09;5096062;28;20478;-49
2022/12/24 09:00:25;;;;;;;97.97;18.35;;;;;;;8.29;100.00;101050.56;5096078;28;20443;-50
2022/12/24 09:02:51;;;;;;;110.80;18.40;;;;;;;8.34;100.00;101053.28;5095078;28;20525;-48
2022/12/24 09:05:16;;;;;;;119.53;20.20;;;;;;;8.34;100.00;101054.19;5096195;28;20032;-48
2022/12/24 09:07:42;;;;;;;99.80;18.65;;;;;;;8.38;100.00;101045.78;5095254;28;20036;-44
2022/12/24 09:10:08;;;;;;;107.75;18.17;;;;;;;8.38;100.00;101057.78;5095750;28;20421;-49
2022/12/24 09:12:33;;;;;;;115.28;18.80;;;;;;;8.37;100.00;101058.56;5095393;28;20032;-47
2022/12/24 09:14:58;;;;;;;108.28;19.40;;;;;;;8.39;100.00;101072.34;5095563;28;20028;-48
2022/12/24 09:17:24;;;;;;;102.90;19.40;;;;;;;8.41;100.00;101075.88;5095897;28;20364;-49
2022/12/24 09:19:50;;;;;;;105.75;19.38;;;;;;;8.44;100.00;101073.41;5095664;28;20028;-48
2022/12/24 09:22:15;;;;;;;110.65;19.35;;;;;;;8.49;100.00;101079.66;5095363;28;20024;-49
2022/12/24 09:24:40;;;;;;;101.47;19.25;;;;;;;8.55;100.00;101089.31;5095315;28;20436;-47
2022/12/24 09:27:06;;;;;;;102.13;19.48;;;;;;;8.61;100.00;101097.28;5095881;28;20020;-45
2022/12/24 09:29:31;;;;;;;117.20;20.50;;;;;;;8.68;100.00;101108.69;5094667;28;20154;-49
2022/12/24 09:31:57;;;;;;;108.03;19.83;;;;;;;8.73;100.00;101112.34;5095644;28;20039;-44
2022/12/24 09:34:23;;;;;;;103.13;17.25;;;;;;;8.82;100.00;101105.00;5095802;28;20024;-48
2022/12/24 09:36:48;;;;;;;105.50;17.92;;;;;;;8.96;100.00;101114.94;5094676;28;20020;-49
2022/12/24 09:39:14;;;;;;;93.10;18.27;;;;;;;8.98;100.00;101116.78;5095225;28;20032;-49
2022/12/24 09:42:07;;;;;;;117.90;19.55;;;;;;;9.01;100.00;101116.91;5095044;28;20399;-49
2022/12/24 09:44:49;;;;;;;116.72;19.45;;;;;;;9.02;100.00;101115.22;5094405;28;20028;-49
2022/12/24 09:47:38;;;;;;;100.68;17.80;;;;;;;9.08;100.00;101123.16;5095516;28;20099;-49
2022/12/24 09:50:20;;;;;;;97.60;17.70;;;;;;;9.07;100.00;101124.84;5094591;28;20035;-50
2022/12/24 09:52:49;;;;;;;95.28;18.75;;;;;;;9.04;100.00;101135.03;5094548;28;20074;-49
2022/12/24 09:55:24;;;;;;;101.18;17.90;;;;;;;8.99;100.00;101122.81;5095284;28;20032;-48
2022/12/24 09:57:53;;;;;;;106.90;18.45;;;;;;;8.93;100.00;101130.25;5093872;28;20126;-49
2022/12/24 10:00:22;;;;;;;113.20;19.25;;;;;;;8.90;100.00;101134.44;5094751;28;20016;-48
2022/12/24 10:02:48;;;;;;;105.22;19.05;;;;;;;8.88;100.00;101135.19;5094683;28;20097;-48
2022/12/24 10:05:14;;;;;;;115.03;20.05;;;;;;;8.88;100.00;101148.06;5094384;28;20047;-48
2022/12/24 10:07:48;;;;;;;116.18;20.40;;;;;;;8.95;100.00;101151.75;5094570;28;20032;-47
2022/12/24 10:10:20;;;;;;;107.60;19.35;;;;;;;9.07;100.00;101152.25;5095085;28;20024;-49
2022/12/24 10:12:58;;;;;;;113.82;19.17;;;;;;;9.18;100.00;101156.16;5093657;28;20073;-48
2022/12/24 10:15:30;;;;;;;99.13;19.40;;;;;;;9.27;100.00;101147.03;5094987;28;20035;-49
2022/12/24 10:18:45;;;;;;;112.78;19.70;;;;;;;9.33;100.00;101158.44;5094780;28;20072;-49
2022/12/24 10:21:32;;;;;;;103.63;19.50;;;;;;;9.27;100.00;101144.47;5079902;28;20036;-48
2022/12/24 10:24:11;;;;;;;107.55;19.65;;;;;;;9.22;100.00;101145.16;5094744;28;20028;-48
2022/12/24 10:26:42;;;;;;;106.75;19.88;;;;;;;9.18;100.00;101135.59;5093659;28;20103;-48
2022/12/24 10:29:17;;;;;;;110.60;18.60;;;;;;;9.16;100.00;101132.06;5094373;28;20020;-49
2022/12/24 10:31:53;;;;;;;103.38;20.60;;;;;;;9.26;100.00;101137.56;5094034;28;20024;-46
2022/12/24 10:34:22;;;;;;;115.20;21.27;;;;;;;9.30;100.00;101139.47;5093791;28;20080;-49
2022/12/24 10:36:47;;;;;;;135.93;31.60;;;;;;;9.30;100.00;101130.03;5094227;28;20024;-48
2022/12/24 10:39:18;;;;;;;133.63;30.08;;;;;;;9.30;100.00;101142.03;5093840;28;20544;-48
2022/12/24 10:41:46;;;;;;;124.85;21.95;;;;;;;9.36;100.00;101152.53;5093885;28;20036;-48
2022/12/24 10:44:17;;;;;;;103.93;19.77;;;;;;;9.36;100.00;101153.44;5094052;28;20024;-48
2022/12/24 10:46:44;;;;;;;116.47;21.58;;;;;;;9.37;100.00;101157.78;5093463;28;20104;-49
2022/12/24 10:49:16;;;;;;;101.30;19.63;;;;;;;9.37;100.00;101151.72;5093850;28;20368;-49
2022/12/24 10:51:52;;;;;;;105.53;19.58;;;;;;;9.37;100.00;101146.59;5093614;28;20467;-48
2022/12/24 10:54:23;;;;;;;107.38;20.23;;;;;;;9.42;100.00;101150.22;5093552;28;20081;-49
2022/12/24 10:56:54;;;;;;;97.35;19.45;;;;;;;9.45;100.00;101145.22;5093356;28;20099;-49
2022/12/24 10:59:27;;;;;;;103.10;23.20;;;;;;;9.65;100.00;101145.09;5094207;28;20042;-46
2022/12/24 11:01:54;;;;;;;117.60;22.35;;;;;;;9.77;100.00;101142.97;5092967;28;20043;-49
2022/12/24 11:04:22;;;;;;;104.78;20.83;;;;;;;9.81;100.00;101154.25;5093827;28;20028;-48
2022/12/24 11:07:17;;;;;;;114.47;20.70;;;;;;;9.85;100.00;101149.28;5093457;28;20028;-45
2022/12/24 11:09:54;;;;;;;87.35;18.20;;;;;;;9.80;100.00;101162.78;5092719;28;20020;-47
2022/12/24 11:12:23;;;;;;;105.30;19.83;;;;;;;9.74;100.00;101153.16;5093924;28;20067;-46
2022/12/24 11:15:02;;;;;;;98.18;19.73;;;;;;;9.74;100.00;101163.44;5092898;28;20035;-49
2022/12/24 11:17:28;;;;;;;93.05;18.02;;;;;;;9.78;100.00;101155.03;5093096;28;20056;-47